Time;durP1;ratioP1;P1;durP2;ratioP2;P2;SDS_P1;SDS_P2;PMS_P1;PMS_P2;Temp;Humidity;BMP_temperature;BMP_pressure;BME280_temperature;BME280_humidity;BME280_pressure;Samples;Min_cycle;Max_cycle;Signal;HPM_P1;HPM_P2
2022/12/19 00:01:27;;;;;;;7.78;6.95;;;;;;;;;;5099863;28;20204;-69
2022/12/19 00:03:55;;;;;;;6.72;6.03;;;;;;;;;;5099482;28;20223;-70
2022/12/19 00:06:23;;;;;;;7.30;6.60;;;;;;;;;;5098780;28;20268;-69
2022/12/19 00:08:51;;;;;;;7.20;6.50;;;;;;;;;;5099746;28;20648;-70
2022/12/19 00:11:20;;;;;;;7.18;6.47;;;;;;;;;;5099761;28;20257;-70
2022/12/19 00:13:48;;;;;;;7.40;6.30;;;;;;;;;;5099214;28;20567;-70
2022/12/19 00:16:18;;;;;;;7.35;6.53;;;;;;;;;;5099539;28;20233;-70
2022/12/19 00:18:46;;;;;;;7.60;6.60;;;;;;;;;;5099486;28;20208;-69
2022/12/19 00:21:19;;;;;;;7.22;6.50;;;;;;;;;;5099106;28;20234;-69
2022/12/19 00:23:47;;;;;;;7.32;6.63;;;;;;;;;;5099152;28;20268;-69
2022/12/19 00:26:15;;;;;;;7.93;6.95;;;;;;;;;;5099094;28;20204;-69
2022/12/19 00:28:44;;;;;;;7.45;6.65;;;;;;;;;;5099161;28;20243;-69
2022/12/19 00:31:12;;;;;;;7.28;6.57;;;;;;;;;;5099230;28;20227;-70
2022/12/19 00:33:41;;;;;;;7.25;6.53;;;;;;;;;;5098824;28;20243;-70
2022/12/19 00:36:11;;;;;;;7.10;6.40;;;;;;;;;;5098933;28;20211;-70
2022/12/19 00:38:39;;;;;;;6.93;6.22;;;;;;;;;;5098252;28;20207;-69
2022/12/19 00:41:10;;;;;;;7.53;6.60;;;;;;;;;;5098823;28;20629;-69
2022/12/19 00:43:38;;;;;;;7.85;7.05;;;;;;;;;;5098977;28;20210;-69
2022/12/19 00:46:07;;;;;;;7.53;6.72;;;;;;;;;;5098995;28;20211;-69
2022/12/19 00:48:35;;;;;;;8.07;6.82;;;;;;;;;;5099118;28;20204;-69
2022/12/19 00:51:05;;;;;;;7.35;6.60;;;;;;;;;;5098527;28;20245;-69
2022/12/19 00:53:33;;;;;;;7.32;6.35;;;;;;;;;;5098936;28;20247;-69
2022/12/19 00:56:02;;;;;;;8.00;6.90;;;;;;;;;;5098379;28;20269;-69
2022/12/19 00:58:30;;;;;;;7.70;6.88;;;;;;;;;;5098726;28;20237;-70
2022/12/19 01:00:58;;;;;;;8.13;7.20;;;;;;;;;;5098725;28;20218;-70
2022/12/19 01:03:26;;;;;;;7.72;6.60;;;;;;;;;;5098090;28;20239;-69
2022/12/19 01:05:54;;;;;;;7.32;6.63;;;;;;;;;;5098589;28;20211;-69
2022/12/19 01:08:23;;;;;;;8.38;7.10;;;;;;;;;;5098365;28;20204;-69
2022/12/19 01:10:51;;;;;;;7.93;6.53;;;;;;;;;;5098218;28;20243;-69
2022/12/19 01:13:19;;;;;;;7.88;7.07;;;;;;;;;;5098290;28;20215;-69
2022/12/19 01:15:46;;;;;;;6.88;6.07;;;;;;;;;;5098707;28;20228;-69
2022/12/19 01:18:14;;;;;;;7.50;6.45;;;;;;;;;;5097763;28;20253;-69
2022/12/19 01:20:42;;;;;;;7.60;6.90;;;;;;;;;;5098138;28;20210;-69
2022/12/19 01:23:11;;;;;;;7.53;6.63;;;;;;;;;;5098150;28;20709;-70
2022/12/19 01:25:41;;;;;;;7.78;6.97;;;;;;;;;;5098013;28;20558;-69
2022/12/19 01:28:09;;;;;;;7.95;7.15;;;;;;;;;;5098330;28;20602;-69
2022/12/19 01:30:40;;;;;;;7.13;6.40;;;;;;;;;;5098284;28;20209;-69
2022/12/19 01:33:09;;;;;;;8.10;7.00;;;;;;;;;;5098023;28;20212;-69
2022/12/19 01:35:37;;;;;;;6.93;6.22;;;;;;;;;;5098076;28;20289;-69
2022/12/19 01:38:05;;;;;;;6.97;6.28;;;;;;;;;;5097555;28;20196;-69
2022/12/19 01:40:33;;;;;;;7.28;6.53;;;;;;;;;;5097246;28;20203;-69
2022/12/19 01:43:02;;;;;;;7.25;6.55;;;;;;;;;;5097369;28;20235;-69
2022/12/19 01:45:32;;;;;;;7.57;6.78;;;;;;;;;;5097679;28;20195;-69
2022/12/19 01:48:03;;;;;;;7.63;6.82;;;;;;;;;;5097578;28;20211;-70
2022/12/19 01:50:34;;;;;;;7.88;7.07;;;;;;;;;;5097596;28;20212;-70
2022/12/19 01:53:02;;;;;;;7.28;6.57;;;;;;;;;;5097249;28;20294;-69
2022/12/19 01:55:30;;;;;;;7.70;6.88;;;;;;;;;;5096430;28;20310;-69
2022/12/19 01:57:58;;;;;;;7.05;6.28;;;;;;;;;;5097077;28;20614;-69
2022/12/19 02:00:27;;;;;;;6.85;6.15;;;;;;;;;;5097208;28;20226;-69
2022/12/19 02:02:58;;;;;;;6.90;6.20;;;;;;;;;;5096970;28;20729;-69
2022/12/19 02:05:25;;;;;;;6.85;6.15;;;;;;;;;;5097446;28;20568;-69
2022/12/19 02:07:54;;;;;;;6.47;5.88;;;;;;;;;;5097206;28;20272;-69
2022/12/19 02:10:22;;;;;;;7.25;6.47;;;;;;;;;;5097817;28;20212;-70
2022/12/19 02:12:50;;;;;;;7.35;6.55;;;;;;;;;;5097362;28;20603;-69
2022/12/19 02:15:18;;;;;;;7.50;6.70;;;;;;;;;;5097901;28;20558;-69
2022/12/19 02:17:54;;;;;;;7.47;6.60;;;;;;;;;;5097323;28;20214;-70
2022/12/19 02:20:45;;;;;;;7.78;6.63;;;;;;;;;;5097424;28;20208;-70
2022/12/19 02:23:28;;;;;;;7.47;6.45;;;;;;;;;;5097484;28;20650;-69
2022/12/19 02:26:02;;;;;;;7.40;6.50;;;;;;;;;;5097359;28;20210;-69
2022/12/19 02:28:37;;;;;;;7.63;6.82;;;;;;;;;;5097226;28;20203;-69
2022/12/19 02:31:10;;;;;;;7.35;6.65;;;;;;;;;;5097194;28;20210;-69
2022/12/19 02:33:41;;;;;;;7.55;6.68;;;;;;;;;;5097527;28;20210;-69
2022/12/19 02:36:13;;;;;;;7.28;6.47;;;;;;;;;;5097329;28;20259;-69
2022/12/19 02:38:43;;;;;;;7.00;6.30;;;;;;;;;;5097137;28;20247;-69
2022/12/19 02:41:14;;;;;;;7.35;6.45;;;;;;;;;;5096997;28;20265;-69
2022/12/19 02:43:43;;;;;;;7.72;6.70;;;;;;;;;;5097169;28;20325;-69
2022/12/19 02:46:13;;;;;;;7.68;6.88;;;;;;;;;;5097128;28;20594;-69
2022/12/19 02:48:41;;;;;;;7.53;6.72;;;;;;;;;;5096996;28;20204;-69
2022/12/19 02:51:09;;;;;;;7.75;6.95;;;;;;;;;;5097328;28;20204;-69
2022/12/19 02:53:38;;;;;;;8.13;7.13;;;;;;;;;;5097631;28;20481;-69
2022/12/19 02:56:10;;;;;;;7.20;6.50;;;;;;;;;;5097234;28;20232;-69
2022/12/19 02:58:52;;;;;;;7.25;6.55;;;;;;;;;;5096924;28;20203;-69
2022/12/19 03:01:27;;;;;;;8.32;7.18;;;;;;;;;;5097989;28;20226;-69
2022/12/19 03:03:59;;;;;;;7.93;6.43;;;;;;;;;;5100505;28;20694;-69
2022/12/19 03:06:32;;;;;;;7.55;6.50;;;;;;;;;;5100498;28;20207;-69
2022/12/19 03:09:03;;;;;;;8.57;7.22;;;;;;;;;;5100735;28;20203;-69
2022/12/19 03:11:32;;;;;;;7.28;6.57;;;;;;;;;;5100385;28;20227;-70
2022/12/19 03:14:01;;;;;;;8.68;7.15;;;;;;;;;;5100399;28;20207;-70
2022/12/19 03:16:31;;;;;;;7.63;6.82;;;;;;;;;;5100672;28;20238;-70
2022/12/19 03:18:58;;;;;;;8.30;7.47;;;;;;;;;;5100172;28;20210;-69
2022/12/19 03:21:29;;;;;;;7.43;6.72;;;;;;;;;;5100764;28;20204;-69
2022/12/19 03:23:58;;;;;;;7.43;6.60;;;;;;;;;;5100647;28;20552;-69
2022/12/19 03:26:28;;;;;;;7.60;6.80;;;;;;;;;;5100667;28;20546;-69
2022/12/19 03:29:00;;;;;;;9.35;7.00;;;;;;;;;;5100576;28;20305;-69
2022/12/19 03:31:30;;;;;;;7.72;6.70;;;;;;;;;;5100245;28;20501;-69
2022/12/19 03:34:01;;;;;;;7.28;6.57;;;;;;;;;;5100252;28;20204;-69
2022/12/19 03:36:31;;;;;;;8.35;7.45;;;;;;;;;;5100321;28;20257;-69
2022/12/19 03:39:00;;;;;;;7.00;6.30;;;;;;;;;;5100138;28;20203;-69
2022/12/19 03:44:16;;;;;;;7.65;6.95;;;;;;;;;;5099676;28;20191;-69
2022/12/19 03:46:46;;;;;;;7.70;6.90;;;;;;;;;;5099306;28;20488;-69
2022/12/19 03:49:16;;;;;;;7.28;6.53;;;;;;;;;;5099797;28;20207;-69
2022/12/19 03:51:47;;;;;;;7.65;6.93;;;;;;;;;;5100033;28;20494;-69
2022/12/19 03:54:16;;;;;;;7.90;7.10;;;;;;;;;;5099957;28;20300;-69
2022/12/19 03:56:50;;;;;;;7.88;7.07;;;;;;;;;;5099653;28;20223;-69
2022/12/19 03:59:19;;;;;;;7.60;6.80;;;;;;;;;;5099320;28;20203;-69
2022/12/19 04:01:48;;;;;;;7.55;6.85;;;;;;;;;;5099666;28;20638;-69
2022/12/19 04:04:17;;;;;;;7.90;7.10;;;;;;;;;;5099336;28;20250;-69
2022/12/19 04:06:46;;;;;;;7.35;6.65;;;;;;;;;;5099576;28;20210;-70
2022/12/19 04:09:14;;;;;;;8.20;6.90;;;;;;;;;;5099672;28;20204;-69
2022/12/19 04:11:44;;;;;;;8.07;7.03;;;;;;;;;;5099536;28;20235;-69
2022/12/19 04:14:15;;;;;;;7.43;6.68;;;;;;;;;;5099367;28;20307;-69
2022/12/19 04:16:45;;;;;;;7.38;6.57;;;;;;;;;;5099053;28;20309;-70
2022/12/19 04:19:16;;;;;;;7.43;6.63;;;;;;;;;;5099492;28;20286;-69
2022/12/19 04:21:49;;;;;;;7.63;6.82;;;;;;;;;;5099252;28;20214;-69
2022/12/19 04:24:19;;;;;;;7.80;6.65;;;;;;;;;;5099030;28;20211;-69
2022/12/19 04:26:48;;;;;;;7.63;6.82;;;;;;;;;;5098966;28;20252;-70
2022/12/19 04:29:17;;;;;;;7.25;6.55;;;;;;;;;;5099341;28;20286;-69
2022/12/19 04:31:45;;;;;;;7.90;7.10;;;;;;;;;;5098184;28;20255;-69
2022/12/19 04:34:13;;;;;;;8.00;7.03;;;;;;;;;;5098401;28;20214;-69
2022/12/19 04:36:40;;;;;;;8.00;7.10;;;;;;;;;;5098241;28;20227;-69
2022/12/19 04:39:09;;;;;;;8.02;7.22;;;;;;;;;;5098393;28;20231;-69
2022/12/19 04:41:38;;;;;;;7.60;6.78;;;;;;;;;;5098313;28;20247;-69
2022/12/19 04:44:06;;;;;;;11.00;6.78;;;;;;;;;;5098848;28;20200;-69
2022/12/19 04:46:34;;;;;;;7.70;6.88;;;;;;;;;;5098395;28;20199;-69
2022/12/19 04:49:02;;;;;;;7.28;6.57;;;;;;;;;;5098540;28;20268;-69
2022/12/19 04:51:29;;;;;;;7.22;6.50;;;;;;;;;;5098495;28;20216;-70
2022/12/19 04:53:57;;;;;;;8.32;6.80;;;;;;;;;;5098407;28;20215;-69
2022/12/19 04:56:27;;;;;;;7.47;6.68;;;;;;;;;;5098592;28;20317;-70
2022/12/19 04:58:57;;;;;;;7.78;6.97;;;;;;;;;;5097757;28;20297;-70
2022/12/19 05:01:25;;;;;;;7.47;6.65;;;;;;;;;;5098158;28;20658;-70
2022/12/19 05:03:52;;;;;;;7.40;6.60;;;;;;;;;;5097833;28;20282;-70
2022/12/19 05:06:20;;;;;;;7.15;6.47;;;;;;;;;;5098635;28;20577;-69
2022/12/19 05:08:47;;;;;;;7.60;6.80;;;;;;;;;;5098028;28;20265;-69
2022/12/19 05:11:16;;;;;;;8.32;7.40;;;;;;;;;;5098188;28;20204;-69
2022/12/19 05:13:44;;;;;;;7.63;6.88;;;;;;;;;;5097619;28;20213;-70
2022/12/19 05:16:14;;;;;;;7.78;6.70;;;;;;;;;;5097633;28;20707;-69
2022/12/19 05:18:41;;;;;;;6.82;6.15;;;;;;;;;;5097688;28;20203;-69
2022/12/19 05:21:10;;;;;;;7.68;6.82;;;;;;;;;;5097406;28;20285;-69
2022/12/19 05:23:37;;;;;;;8.18;7.35;;;;;;;;;;5097213;28;20542;-69
2022/12/19 05:26:05;;;;;;;7.20;6.50;;;;;;;;;;5097519;28;20210;-70
2022/12/19 05:28:33;;;;;;;7.60;6.78;;;;;;;;;;5097000;28;20293;-69
2022/12/19 05:31:05;;;;;;;7.95;7.15;;;;;;;;;;5097179;28;20290;-69
2022/12/19 05:33:33;;;;;;;8.10;6.88;;;;;;;;;;5096148;28;20243;-69
2022/12/19 05:36:00;;;;;;;8.02;7.22;;;;;;;;;;5096928;28;20238;-69
2022/12/19 05:38:28;;;;;;;8.15;7.35;;;;;;;;;;5097035;28;20294;-69
2022/12/19 05:40:56;;;;;;;8.27;7.20;;;;;;;;;;5096872;28;20302;-69
2022/12/19 05:43:23;;;;;;;8.10;7.30;;;;;;;;;;5096577;28;20690;-69
2022/12/19 05:45:51;;;;;;;8.23;7.03;;;;;;;;;;5096654;28;20298;-69
2022/12/19 05:48:19;;;;;;;7.75;6.97;;;;;;;;;;5095970;28;20306;-69
2022/12/19 05:50:50;;;;;;;7.63;6.85;;;;;;;;;;5094686;28;20214;-69
2022/12/19 05:53:18;;;;;;;7.90;6.95;;;;;;;;;;5095659;28;20296;-69
2022/12/19 05:55:45;;;;;;;8.32;7.18;;;;;;;;;;5094831;28;20310;-69
2022/12/19 05:58:13;;;;;;;7.63;6.82;;;;;;;;;;5095906;28;20587;-70
2022/12/19 06:00:40;;;;;;;7.60;6.80;;;;;;;;;;5096283;28;20294;-69
2022/12/19 06:03:07;;;;;;;8.45;6.63;;;;;;;;;;5095431;28;20243;-70
2022/12/19 06:05:39;;;;;;;7.82;7.03;;;;;;;;;;5095265;28;20191;-69
2022/12/19 06:08:06;;;;;;;8.25;7.35;;;;;;;;;;5095478;28;20196;-70
2022/12/19 06:10:34;;;;;;;7.70;6.80;;;;;;;;;;5095311;28;20286;-69
2022/12/19 06:13:01;;;;;;;7.93;7.05;;;;;;;;;;5095027;28;20214;-69
2022/12/19 06:15:28;;;;;;;7.90;7.10;;;;;;;;;;5095772;28;20563;-69
2022/12/19 06:17:56;;;;;;;7.75;6.95;;;;;;;;;;5095104;28;20219;-69
2022/12/19 06:20:24;;;;;;;8.13;7.28;;;;;;;;;;5093747;28;20302;-69
2022/12/19 06:22:52;;;;;;;8.65;7.35;;;;;;;;;;5094991;28;20199;-69
2022/12/19 06:25:20;;;;;;;8.48;7.47;;;;;;;;;;5095447;28;20213;-69
2022/12/19 06:27:47;;;;;;;8.63;7.07;;;;;;;;;;5095112;28;20605;-69
2022/12/19 06:30:15;;;;;;;7.57;6.72;;;;;;;;;;5094765;28;20204;-69
2022/12/19 06:32:42;;;;;;;7.88;6.95;;;;;;;;;;5094875;28;20199;-69
2022/12/19 06:35:10;;;;;;;8.88;7.35;;;;;;;;;;5094897;28;20442;-70
2022/12/19 06:37:37;;;;;;;7.97;7.13;;;;;;;;;;5098558;28;20238;-69
2022/12/19 06:40:07;;;;;;;9.30;7.45;;;;;;;;;;5097469;28;20491;-69
2022/12/19 06:42:53;;;;;;;8.20;7.13;;;;;;;;;;5096949;28;20199;-70
2022/12/19 06:45:21;;;;;;;8.07;7.25;;;;;;;;;;5098093;28;20284;-69
2022/12/19 06:47:48;;;;;;;10.98;7.68;;;;;;;;;;5097645;28;20306;-69
2022/12/19 06:50:16;;;;;;;9.82;7.50;;;;;;;;;;5097064;28;20256;-69
2022/12/19 06:52:44;;;;;;;9.98;8.00;;;;;;;;;;5097684;28;20587;-69
2022/12/19 06:55:13;;;;;;;8.68;7.72;;;;;;;;;;5096927;28;20219;-69
2022/12/19 06:57:44;;;;;;;9.13;7.70;;;;;;;;;;5095877;28;20220;-69
2022/12/19 07:00:12;;;;;;;9.70;7.68;;;;;;;;;;5096126;28;20235;-69
2022/12/19 07:02:43;;;;;;;12.70;11.50;;;;;;;;;;5097168;28;20316;-69
2022/12/19 07:05:11;;;;;;;13.52;12.13;;;;;;;;;;5096538;28;20204;-67
2022/12/19 07:07:40;;;;;;;12.95;10.60;;;;;;;;;;5096517;28;20200;-69
2022/12/19 07:10:08;;;;;;;12.70;10.60;;;;;;;;;;5095653;28;20576;-69
2022/12/19 07:12:37;;;;;;;12.02;10.38;;;;;;;;;;5097643;28;20204;-69
2022/12/19 07:15:05;;;;;;;12.48;9.77;;;;;;;;;;5095939;28;20364;-69
2022/12/19 07:17:32;;;;;;;13.13;10.63;;;;;;;;;;5095798;28;20606;-69
2022/12/19 07:20:00;;;;;;;11.13;9.60;;;;;;;;;;5095800;28;20620;-69
2022/12/19 07:22:30;;;;;;;14.25;10.23;;;;;;;;;;5096980;28;20200;-69
2022/12/19 07:24:57;;;;;;;13.23;10.50;;;;;;;;;;5096697;28;20243;-69
2022/12/19 07:27:25;;;;;;;16.33;10.55;;;;;;;;;;5097971;28;20282;-69
2022/12/19 07:29:54;;;;;;;30.90;19.15;;;;;;;;;;5097674;28;20202;-69
2022/12/19 07:32:22;;;;;;;22.48;15.57;;;;;;;;;;5097587;28;20385;-69
2022/12/19 07:34:49;;;;;;;17.17;14.75;;;;;;;;;;5080737;28;20581;-69
2022/12/19 07:37:17;;;;;;;18.67;14.50;;;;;;;;;;5076648;28;20242;-69
2022/12/19 07:39:44;;;;;;;40.45;36.72;;;;;;;;;;5076569;28;20197;-69
2022/12/19 07:42:12;;;;;;;39.08;35.22;;;;;;;;;;5076758;28;20205;-69
2022/12/19 07:44:39;;;;;;;31.23;28.15;;;;;;;;;;5077280;28;20204;-69
2022/12/19 07:47:08;;;;;;;29.23;26.40;;;;;;;;;;5076674;28;20230;-69
2022/12/19 07:49:35;;;;;;;29.75;26.75;;;;;;;;;;5075865;28;20236;-69
2022/12/19 07:52:03;;;;;;;27.13;24.63;;;;;;;;;;5076048;28;20600;-69
2022/12/19 07:54:31;;;;;;;25.83;23.02;;;;;;;;;;5076005;28;20492;-69
2022/12/19 07:56:59;;;;;;;25.13;22.55;;;;;;;;;;5075223;28;20483;-69
2022/12/19 07:59:26;;;;;;;25.50;22.50;;;;;;;;;;5074264;28;20307;-69
2022/12/19 08:01:54;;;;;;;23.33;21.08;;;;;;;;;;5074825;28;20299;-70
2022/12/19 08:04:22;;;;;;;24.08;21.80;;;;;;;;;;5075254;28;20232;-69
2022/12/19 08:06:50;;;;;;;21.88;19.77;;;;;;;;;;5075217;28;20291;-69
2022/12/19 08:09:17;;;;;;;20.60;18.60;;;;;;;;;;5075923;28;20239;-69
2022/12/19 08:11:45;;;;;;;20.65;18.60;;;;;;;;;;5075701;28;20201;-69
2022/12/19 08:14:12;;;;;;;19.08;17.27;;;;;;;;;;5074524;28;20204;-69
2022/12/19 08:16:39;;;;;;;19.27;17.45;;;;;;;;;;5074377;28;20228;-69
2022/12/19 08:19:07;;;;;;;17.25;15.65;;;;;;;;;;5075006;28;20205;-70
2022/12/19 08:21:36;;;;;;;17.27;15.57;;;;;;;;;;5076086;28;20215;-69
2022/12/19 08:24:03;;;;;;;16.92;15.20;;;;;;;;;;5075826;28;20299;-69
2022/12/19 08:26:31;;;;;;;16.17;14.68;;;;;;;;;;5074542;28;20295;-69
2022/12/19 08:28:59;;;;;;;16.55;14.88;;;;;;;;;;5075968;28;20200;-70
2022/12/19 08:31:27;;;;;;;14.73;13.30;;;;;;;;;;5074815;28;20294;-69
2022/12/19 08:33:55;;;;;;;14.30;13.00;;;;;;;;;;5074334;28;20608;-69
2022/12/19 08:36:23;;;;;;;13.85;12.55;;;;;;;;;;5073930;28;20285;-69
2022/12/19 08:38:52;;;;;;;13.85;12.45;;;;;;;;;;5075529;28;20571;-70
2022/12/19 08:41:19;;;;;;;13.70;12.35;;;;;;;;;;5073913;28;20206;-70
2022/12/19 08:43:49;;;;;;;14.32;11.55;;;;;;;;;;5074840;28;20204;-69
2022/12/19 08:46:17;;;;;;;12.70;11.40;;;;;;;;;;5075061;28;20236;-70
2022/12/19 08:48:45;;;;;;;17.35;11.55;;;;;;;;;;5074446;28;20558;-69
2022/12/19 08:51:13;;;;;;;11.52;10.43;;;;;;;;;;5074632;28;20239;-69
2022/12/19 08:53:42;;;;;;;12.13;10.88;;;;;;;;;;5074782;28;20640;-69
2022/12/19 08:56:11;;;;;;;11.10;10.07;;;;;;;;;;5074465;28;20196;-69
2022/12/19 08:58:39;;;;;;;10.98;9.95;;;;;;;;;;5073050;28;20204;-69
2022/12/19 09:01:07;;;;;;;10.57;9.57;;;;;;;;;;5073081;28;20522;-69
2022/12/19 09:03:35;;;;;;;11.45;10.35;;;;;;;;;;5073828;28;20251;-69
2022/12/19 09:06:03;;;;;;;11.00;9.90;;;;;;;;;;5073366;28;20310;-70
2022/12/19 09:08:31;;;;;;;9.88;8.98;;;;;;;;;;5075189;28;20516;-69
2022/12/19 09:10:59;;;;;;;10.65;8.85;;;;;;;;;;5073563;28;20608;-69
2022/12/19 09:13:28;;;;;;;9.77;8.88;;;;;;;;;;5074951;28;20208;-69
2022/12/19 09:16:06;;;;;;;10.30;9.27;;;;;;;;;;5073631;28;20251;-69
2022/12/19 09:18:34;;;;;;;9.68;8.73;;;;;;;;;;5072874;28;20234;-69
2022/12/19 09:21:01;;;;;;;9.43;8.52;;;;;;;;;;5074180;28;20294;-69
2022/12/19 09:23:30;;;;;;;9.85;8.85;;;;;;;;;;5074642;28;20202;-69
2022/12/19 09:25:59;;;;;;;9.65;8.70;;;;;;;;;;5073843;28;20211;-69
2022/12/19 09:28:28;;;;;;;9.00;8.13;;;;;;;;;;5073906;28;20283;-69
2022/12/19 09:30:56;;;;;;;9.05;8.15;;;;;;;;;;5073390;28;20266;-69
2022/12/19 09:33:23;;;;;;;9.48;8.40;;;;;;;;;;5074405;28;20208;-70
2022/12/19 09:35:51;;;;;;;9.25;8.27;;;;;;;;;;5073810;28;20206;-69
2022/12/19 09:38:19;;;;;;;8.90;8.00;;;;;;;;;;5071996;28;20238;-69
2022/12/19 09:40:53;;;;;;;9.52;8.63;;;;;;;;;;5073182;28;20325;-69
2022/12/19 09:43:25;;;;;;;8.32;7.53;;;;;;;;;;5072980;28;20208;-69
2022/12/19 09:45:58;;;;;;;8.75;7.95;;;;;;;;;;5073663;28;20307;-69
2022/12/19 09:48:25;;;;;;;8.48;7.63;;;;;;;;;;5071929;28;20204;-69
2022/12/19 09:50:57;;;;;;;8.65;7.80;;;;;;;;;;5071444;28;20299;-69
2022/12/19 09:53:28;;;;;;;8.40;7.60;;;;;;;;;;5072347;28;20372;-69
2022/12/19 09:55:59;;;;;;;8.10;6.93;;;;;;;;;;5070870;28;20555;-69
2022/12/19 09:58:32;;;;;;;8.57;7.68;;;;;;;;;;5071848;28;20232;-69
2022/12/19 10:01:03;;;;;;;8.30;7.50;;;;;;;;;;5071861;28;20244;-69
2022/12/19 10:03:32;;;;;;;7.70;6.85;;;;;;;;;;5072943;28;20240;-69
2022/12/19 10:06:02;;;;;;;16.05;14.48;;;;;;;;;;5072230;28;20600;-69
2022/12/19 10:08:31;;;;;;;14.00;12.60;;;;;;;;;;5074385;28;20214;-70
2022/12/19 10:11:05;;;;;;;11.80;10.70;;;;;;;;;;5073284;28;20283;-69
2022/12/19 10:13:39;;;;;;;11.95;10.85;;;;;;;;;;5090572;28;20203;-69
2022/12/19 10:16:11;;;;;;;11.60;10.43;;;;;;;;;;5094343;28;20210;-69
2022/12/19 10:18:48;;;;;;;11.38;10.27;;;;;;;;;;5095085;28;20233;-69
2022/12/19 10:21:22;;;;;;;11.60;10.52;;;;;;;;;;5094752;28;20286;-69
2022/12/19 10:24:01;;;;;;;12.23;10.80;;;;;;;;;;5092350;28;20207;-69
2022/12/19 10:26:30;;;;;;;10.95;9.85;;;;;;;;;;5091230;28;20642;-69
2022/12/19 10:29:07;;;;;;;10.55;9.52;;;;;;;;;;5092387;28;20222;-69
2022/12/19 10:31:40;;;;;;;10.95;9.88;;;;;;;;;;5094795;28;20297;-69
2022/12/19 10:34:11;;;;;;;10.05;9.05;;;;;;;;;;5095090;28;20226;-69
2022/12/19 10:36:42;;;;;;;10.48;9.48;;;;;;;;;;5094988;28;20597;-69
2022/12/19 10:39:13;;;;;;;9.82;8.85;;;;;;;;;;5094752;28;20199;-70
2022/12/19 10:41:43;;;;;;;9.60;8.63;;;;;;;;;;5079355;28;20231;-69
2022/12/19 10:44:10;;;;;;;9.55;8.65;;;;;;;;;;5074109;28;20270;-69
2022/12/19 10:46:41;;;;;;;9.48;8.18;;;;;;;;;;5074504;28;20240;-69
2022/12/19 10:49:13;;;;;;;8.82;8.02;;;;;;;;;;5073675;28;20387;-69
2022/12/19 10:51:41;;;;;;;9.18;8.27;;;;;;;;;;5072445;28;20286;-69
2022/12/19 10:54:09;;;;;;;9.38;8.38;;;;;;;;;;5072530;28;20249;-69
2022/12/19 10:56:36;;;;;;;8.13;7.32;;;;;;;;;;5072568;28;20200;-69
2022/12/19 10:59:04;;;;;;;8.40;7.60;;;;;;;;;;5072745;28;20225;-70
2022/12/19 11:01:33;;;;;;;9.00;8.20;;;;;;;;;;5074012;28;20210;-69
2022/12/19 11:04:30;;;;;;;8.73;7.82;;;;;;;;;;5073806;28;20267;-70
2022/12/19 11:07:18;;;;;;;8.00;7.30;;;;;;;;;;5073075;28;20204;-69
2022/12/19 11:09:47;;;;;;;8.43;7.63;;;;;;;;;;5072990;28;20239;-69
2022/12/19 11:12:16;;;;;;;8.45;7.57;;;;;;;;;;5075334;28;20503;-69
2022/12/19 11:14:45;;;;;;;9.15;7.53;;;;;;;;;;5072466;28;20207;-69
2022/12/19 11:17:26;;;;;;;7.95;7.22;;;;;;;;;;5072534;28;20600;-69
2022/12/19 11:19:57;;;;;;;8.07;7.07;;;;;;;;;;5073054;28;20729;-69
2022/12/19 11:22:25;;;;;;;8.40;7.35;;;;;;;;;;5074746;28;20213;-69
2022/12/19 11:24:53;;;;;;;7.97;7.18;;;;;;;;;;5075490;28;20222;-69
2022/12/19 11:27:37;;;;;;;8.10;7.30;;;;;;;;;;5074954;28;20299;-69
2022/12/19 11:30:08;;;;;;;7.78;6.97;;;;;;;;;;5073841;28;20239;-69
2022/12/19 11:32:36;;;;;;;7.40;6.70;;;;;;;;;;5075761;28;20247;-69
2022/12/19 11:35:07;;;;;;;7.95;7.15;;;;;;;;;;5075113;28;20494;-69
2022/12/19 11:37:38;;;;;;;7.82;7.13;;;;;;;;;;5074373;28;20238;-69
2022/12/19 11:40:07;;;;;;;7.70;6.90;;;;;;;;;;5073032;28;20710;-68
2022/12/19 11:42:36;;;;;;;7.60;6.90;;;;;;;;;;5074454;28;20204;-69
2022/12/19 11:45:08;;;;;;;6.82;6.22;;;;;;;;;;5074357;28;20223;-69
2022/12/19 11:47:39;;;;;;;7.15;6.45;;;;;;;;;;5073783;28;20691;-69
2022/12/19 11:50:13;;;;;;;9.27;8.38;;;;;;;;;;5074738;28;20580;-69
2022/12/19 11:52:42;;;;;;;21.45;19.50;;;;;;;;;;5075220;28;20303;-69
2022/12/19 11:55:16;;;;;;;17.23;15.82;;;;;;;;;;5075846;28;20307;-68
2022/12/19 11:57:44;;;;;;;17.25;15.75;;;;;;;;;;5075317;28;20228;-69
2022/12/19 12:00:13;;;;;;;16.23;14.68;;;;;;;;;;5075560;28;20206;-70
2022/12/19 12:02:52;;;;;;;16.63;15.10;;;;;;;;;;5075648;28;20240;-68
2022/12/19 12:05:28;;;;;;;15.95;14.55;;;;;;;;;;5073215;28;20227;-68
2022/12/19 12:08:00;;;;;;;16.15;14.70;;;;;;;;;;5072610;28;20192;-68
2022/12/19 12:10:29;;;;;;;15.48;14.07;;;;;;;;;;5072194;28;20639;-68
2022/12/19 12:13:01;;;;;;;14.80;13.40;;;;;;;;;;5072228;28;20358;-68
2022/12/19 12:15:34;;;;;;;15.20;13.82;;;;;;;;;;5073016;28;20197;-69
2022/12/19 12:18:06;;;;;;;13.70;12.60;;;;;;;;;;5072939;28;20239;-68
2022/12/19 12:20:38;;;;;;;13.77;12.57;;;;;;;;;;5072371;28;20778;-69
2022/12/19 12:23:16;;;;;;;14.00;12.80;;;;;;;;;;5072021;28;20204;-69
2022/12/19 12:25:48;;;;;;;13.18;12.07;;;;;;;;;;5073716;28;20219;-69
2022/12/19 12:28:27;;;;;;;13.40;12.10;;;;;;;;;;5073252;28;20304;-69
2022/12/19 12:30:59;;;;;;;13.40;12.20;;;;;;;;;;5072646;28;20206;-69
2022/12/19 12:33:29;;;;;;;13.10;11.52;;;;;;;;;;5072066;28;20369;-69
2022/12/19 12:36:02;;;;;;;13.32;12.13;;;;;;;;;;5072882;28;20303;-69
2022/12/19 12:38:43;;;;;;;13.52;12.32;;;;;;;;;;5073219;28;20255;-68
2022/12/19 12:41:16;;;;;;;12.45;11.35;;;;;;;;;;5073502;28;20283;-68
2022/12/19 12:43:47;;;;;;;12.63;11.48;;;;;;;;;;5073749;28;20200;-68
2022/12/19 12:46:16;;;;;;;11.75;10.70;;;;;;;;;;5073573;28;20211;-69
2022/12/19 12:48:46;;;;;;;11.68;10.52;;;;;;;;;;5073801;28;20192;-69
2022/12/19 12:51:15;;;;;;;11.95;10.85;;;;;;;;;;5073807;28;20488;-69
2022/12/19 12:53:44;;;;;;;11.13;10.20;;;;;;;;;;5072978;28;20307;-69
2022/12/19 12:56:13;;;;;;;11.15;10.15;;;;;;;;;;5074009;28;20309;-69
2022/12/19 12:58:45;;;;;;;11.30;10.30;;;;;;;;;;5074177;28;20216;-69
2022/12/19 13:01:17;;;;;;;10.77;9.82;;;;;;;;;;5072845;28;20210;-69
2022/12/19 13:03:51;;;;;;;9.85;9.00;;;;;;;;;;5072331;28;20239;-69
2022/12/19 13:06:25;;;;;;;10.27;9.38;;;;;;;;;;5074268;28;20609;-69
2022/12/19 13:08:54;;;;;;;10.25;9.35;;;;;;;;;;5074266;28;20212;-69
2022/12/19 13:14:39;;;;;;;10.35;9.45;;;;;;;;;;5072036;28;20210;-68
2022/12/19 13:17:07;;;;;;;9.90;9.00;;;;;;;;;;5073132;28;20295;-68
2022/12/19 13:19:35;;;;;;;10.15;9.25;;;;;;;;;;5072421;28;20538;-68
2022/12/19 13:22:17;;;;;;;9.35;8.50;;;;;;;;;;5071267;28;20544;-68
2022/12/19 13:24:48;;;;;;;9.23;8.40;;;;;;;;;;5071882;28;20299;-68
2022/12/19 13:27:34;;;;;;;9.32;8.50;;;;;;;;;;5073991;28;20305;-68
2022/12/19 13:30:18;;;;;;;9.02;8.27;;;;;;;;;;5073264;28;20211;-68
2022/12/19 13:33:04;;;;;;;8.90;8.10;;;;;;;;;;5070284;28;20226;-68
2022/12/19 13:35:35;;;;;;;8.95;8.15;;;;;;;;;;5075854;28;20582;-68
2022/12/19 13:38:03;;;;;;;8.95;8.15;;;;;;;;;;5078274;28;20315;-69
2022/12/19 13:40:34;;;;;;;8.70;7.90;;;;;;;;;;5072646;28;20608;-69
2022/12/19 13:45:53;;;;;;;8.95;8.15;;;;;;;;;;5072223;28;20199;-68
2022/12/19 13:48:25;;;;;;;8.02;7.32;;;;;;;;;;5072185;28;20207;-68
2022/12/19 13:50:53;;;;;;;8.88;7.97;;;;;;;;;;5072541;28;20303;-68
2022/12/19 13:53:22;;;;;;;8.52;7.72;;;;;;;;;;5071625;28;20249;-68
2022/12/19 13:55:54;;;;;;;7.90;7.20;;;;;;;;;;5070065;28;20535;-68
2022/12/19 13:58:23;;;;;;;7.68;6.97;;;;;;;;;;5071056;28;20236;-68
2022/12/19 14:00:51;;;;;;;8.40;7.70;;;;;;;;;;5071638;28;20196;-68
2022/12/19 14:03:21;;;;;;;9.07;8.27;;;;;;;;;;5080821;28;20511;-68
2022/12/19 14:05:48;;;;;;;8.32;7.63;;;;;;;;;;5090799;28;20196;-68
2022/12/19 14:08:17;;;;;;;8.20;7.50;;;;;;;;;;5092987;28;20298;-69
2022/12/19 14:10:46;;;;;;;7.72;7.03;;;;;;;;;;5091485;28;20359;-69
2022/12/19 14:16:02;;;;;;;8.70;7.80;;;;;;;;;;5092952;28;20199;-68
2022/12/19 14:18:30;;;;;;;7.85;7.15;;;;;;;;;;5091854;28;20255;-68
2022/12/19 14:21:08;;;;;;;8.32;7.53;;;;;;;;;;5091411;28;20195;-68
2022/12/19 14:23:35;;;;;;;8.38;7.57;;;;;;;;;;5090033;28;20203;-68
2022/12/19 14:26:03;;;;;;;7.80;7.10;;;;;;;;;;5092321;28;20211;-69
2022/12/19 14:28:38;;;;;;;8.10;7.30;;;;;;;;;;5091531;28;20192;-69
2022/12/19 14:31:09;;;;;;;8.23;7.45;;;;;;;;;;5091939;28;20323;-69
2022/12/19 14:33:38;;;;;;;7.88;7.10;;;;;;;;;;5091452;28;20211;-69
2022/12/19 14:36:06;;;;;;;7.68;6.97;;;;;;;;;;5091722;28;20203;-69
2022/12/19 14:38:35;;;;;;;7.35;6.65;;;;;;;;;;5091004;28;20318;-69
2022/12/19 14:41:03;;;;;;;7.57;6.88;;;;;;;;;;5090140;28;20207;-69
2022/12/19 14:43:41;;;;;;;7.30;6.60;;;;;;;;;;5091845;28;20239;-68
2022/12/19 14:46:26;;;;;;;7.03;6.32;;;;;;;;;;5091716;28;20199;-68
2022/12/19 14:48:55;;;;;;;6.95;6.35;;;;;;;;;;5091517;28;20202;-68
2022/12/19 14:51:26;;;;;;;6.93;6.32;;;;;;;;;;5091286;28;20294;-68
2022/12/19 14:54:20;;;;;;;7.32;6.63;;;;;;;;;;5092175;28;20206;-68
2022/12/19 14:56:49;;;;;;;7.22;6.63;;;;;;;;;;5057320;28;20291;-68
2022/12/19 14:59:27;;;;;;;7.32;6.63;;;;;;;;;;5095323;28;20602;-69
2022/12/19 15:01:56;;;;;;;6.68;6.07;;;;;;;;;;5095733;28;20211;-69
2022/12/19 15:04:26;;;;;;;6.78;6.18;;;;;;;;;;5096897;28;20284;-68